sensor_id;sensor_type;location;lat;lon;timestamp;P1;durP1;ratioP1;P2;durP2;ratioP2
27684;SDS011;46113;50.130;8.526;2024-01-27T00:00:31;6.70;;;1.23;;
27684;SDS011;46113;50.130;8.526;2024-01-27T00:02:58;6.82;;;0.90;;
27684;SDS011;46113;50.130;8.526;2024-01-27T00:05:25;10.52;;;1.60;;
27684;SDS011;46113;50.130;8.526;2024-01-27T00:07:56;12.43;;;1.48;;
27684;SDS011;46113;50.130;8.526;2024-01-27T00:10:23;6.88;;;1.00;;
27684;SDS011;46113;50.130;8.526;2024-01-27T00:12:50;4.00;;;1.00;;
27684;SDS011;46113;50.130;8.526;2024-01-27T00:15:16;2.63;;;0.68;;
27684;SDS011;46113;50.130;8.526;2024-01-27T00:17:43;4.15;;;0.70;;
27684;SDS011;46113;50.130;8.526;2024-01-27T00:20:10;2.97;;;1.17;;
27684;SDS011;46113;50.130;8.526;2024-01-27T00:22:38;2.75;;;1.13;;
27684;SDS011;46113;50.130;8.526;2024-01-27T00:25:05;1.55;;;0.98;;
27684;SDS011;46113;50.130;8.526;2024-01-27T00:27:32;2.55;;;1.17;;
27684;SDS011;46113;50.130;8.526;2024-01-27T00:29:59;10.65;;;1.20;;
27684;SDS011;46113;50.130;8.526;2024-01-27T00:32:26;5.75;;;0.93;;
27684;SDS011;46113;50.130;8.526;2024-01-27T00:34:52;6.97;;;1.17;;
27684;SDS011;46113;50.130;8.526;2024-01-27T00:37:19;4.47;;;1.17;;
27684;SDS011;46113;50.130;8.526;2024-01-27T00:39:46;1.75;;;0.70;;
27684;SDS011;46113;50.130;8.526;2024-01-27T00:42:12;5.45;;;1.05;;
27684;SDS011;46113;50.130;8.526;2024-01-27T00:44:40;2.42;;;0.73;;
27684;SDS011;46113;50.130;8.526;2024-01-27T00:47:06;6.25;;;1.70;;
27684;SDS011;46113;50.130;8.526;2024-01-27T00:49:33;1.60;;;0.88;;
27684;SDS011;46113;50.130;8.526;2024-01-27T00:52:00;6.65;;;1.30;;
27684;SDS011;46113;50.130;8.526;2024-01-27T00:54:26;3.33;;;0.88;;
27684;SDS011;46113;50.130;8.526;2024-01-27T00:56:53;2.72;;;1.00;;
27684;SDS011;46113;50.130;8.526;2024-01-27T00:59:20;6.85;;;1.50;;
27684;SDS011;46113;50.130;8.526;2024-01-27T01:01:47;3.80;;;1.27;;
27684;SDS011;46113;50.130;8.526;2024-01-27T01:04:13;5.45;;;1.48;;
27684;SDS011;46113;50.130;8.526;2024-01-27T01:06:40;7.22;;;1.30;;
27684;SDS011;46113;50.130;8.526;2024-01-27T01:09:07;6.18;;;1.45;;
27684;SDS011;46113;50.130;8.526;2024-01-27T01:11:35;1.17;;;0.90;;
27684;SDS011;46113;50.130;8.526;2024-01-27T01:14:05;4.60;;;1.23;;
27684;SDS011;46113;50.130;8.526;2024-01-27T01:16:32;11.88;;;1.30;;
27684;SDS011;46113;50.130;8.526;2024-01-27T01:18:59;7.03;;;1.73;;
27684;SDS011;46113;50.130;8.526;2024-01-27T01:21:25;9.00;;;1.40;;
27684;SDS011;46113;50.130;8.526;2024-01-27T01:23:53;5.40;;;1.05;;
27684;SDS011;46113;50.130;8.526;2024-01-27T01:26:20;6.00;;;1.17;;
27684;SDS011;46113;50.130;8.526;2024-01-27T01:28:46;2.72;;;0.90;;
27684;SDS011;46113;50.130;8.526;2024-01-27T01:31:13;3.80;;;1.02;;
27684;SDS011;46113;50.130;8.526;2024-01-27T01:33:40;4.03;;;1.02;;
27684;SDS011;46113;50.130;8.526;2024-01-27T01:36:07;7.25;;;1.27;;
27684;SDS011;46113;50.130;8.526;2024-01-27T01:38:33;5.03;;;1.15;;
27684;SDS011;46113;50.130;8.526;2024-01-27T01:41:00;3.75;;;0.95;;
27684;SDS011;46113;50.130;8.526;2024-01-27T01:43:27;14.82;;;1.33;;
27684;SDS011;46113;50.130;8.526;2024-01-27T01:45:54;8.48;;;1.58;;
27684;SDS011;46113;50.130;8.526;2024-01-27T01:48:20;6.80;;;1.25;;
27684;SDS011;46113;50.130;8.526;2024-01-27T01:50:47;7.57;;;1.33;;
27684;SDS011;46113;50.130;8.526;2024-01-27T01:53:14;3.53;;;0.98;;
27684;SDS011;46113;50.130;8.526;2024-01-27T01:55:42;9.32;;;2.28;;
27684;SDS011;46113;50.130;8.526;2024-01-27T01:58:08;7.20;;;1.98;;
27684;SDS011;46113;50.130;8.526;2024-01-27T02:00:35;2.47;;;0.88;;
27684;SDS011;46113;50.130;8.526;2024-01-27T02:03:02;9.30;;;1.48;;
27684;SDS011;46113;50.130;8.526;2024-01-27T02:05:30;5.47;;;1.20;;
27684;SDS011;46113;50.130;8.526;2024-01-27T02:07:57;5.13;;;1.13;;
27684;SDS011;46113;50.130;8.526;2024-01-27T02:10:26;7.22;;;1.15;;
27684;SDS011;46113;50.130;8.526;2024-01-27T02:12:53;10.23;;;1.42;;
27684;SDS011;46113;50.130;8.526;2024-01-27T02:15:19;9.98;;;1.90;;
27684;SDS011;46113;50.130;8.526;2024-01-27T02:17:48;8.50;;;1.92;;
27684;SDS011;46113;50.130;8.526;2024-01-27T02:20:15;2.30;;;0.93;;
27684;SDS011;46113;50.130;8.526;2024-01-27T02:22:41;7.00;;;1.20;;
27684;SDS011;46113;50.130;8.526;2024-01-27T02:25:08;8.82;;;1.40;;
27684;SDS011;46113;50.130;8.526;2024-01-27T02:27:35;8.82;;;1.15;;
27684;SDS011;46113;50.130;8.526;2024-01-27T02:30:02;8.85;;;1.48;;
27684;SDS011;46113;50.130;8.526;2024-01-27T02:32:29;7.90;;;1.10;;
27684;SDS011;46113;50.130;8.526;2024-01-27T02:34:55;6.38;;;1.23;;
27684;SDS011;46113;50.130;8.526;2024-01-27T02:37:22;2.65;;;1.42;;
27684;SDS011;46113;50.130;8.526;2024-01-27T02:39:49;9.93;;;1.23;;
27684;SDS011;46113;50.130;8.526;2024-01-27T02:42:15;9.05;;;1.35;;
27684;SDS011;46113;50.130;8.526;2024-01-27T02:44:42;2.95;;;1.15;;
27684;SDS011;46113;50.130;8.526;2024-01-27T02:47:09;9.27;;;1.48;;
27684;SDS011;46113;50.130;8.526;2024-01-27T02:49:36;10.93;;;1.65;;
27684;SDS011;46113;50.130;8.526;2024-01-27T02:52:02;3.85;;;1.20;;
27684;SDS011;46113;50.130;8.526;2024-01-27T02:54:29;10.07;;;1.38;;
27684;SDS011;46113;50.130;8.526;2024-01-27T02:56:56;2.08;;;0.75;;
27684;SDS011;46113;50.130;8.526;2024-01-27T02:59:23;7.68;;;1.50;;
27684;SDS011;46113;50.130;8.526;2024-01-27T03:01:50;8.82;;;1.02;;
27684;SDS011;46113;50.130;8.526;2024-01-27T03:04:16;6.22;;;1.13;;
27684;SDS011;46113;50.130;8.526;2024-01-27T03:06:43;6.30;;;0.93;;
27684;SDS011;46113;50.130;8.526;2024-01-27T03:09:11;7.22;;;1.08;;
27684;SDS011;46113;50.130;8.526;2024-01-27T03:11:38;3.78;;;0.95;;
27684;SDS011;46113;50.130;8.526;2024-01-27T03:14:05;5.55;;;1.00;;
27684;SDS011;46113;50.130;8.526;2024-01-27T03:16:31;5.07;;;0.95;;
27684;SDS011;46113;50.130;8.526;2024-01-27T03:18:58;4.97;;;1.02;;
27684;SDS011;46113;50.130;8.526;2024-01-27T03:21:26;8.70;;;1.50;;
27684;SDS011;46113;50.130;8.526;2024-01-27T03:23:52;7.85;;;1.23;;
27684;SDS011;46113;50.130;8.526;2024-01-27T03:26:19;7.93;;;1.13;;
27684;SDS011;46113;50.130;8.526;2024-01-27T03:28:46;3.63;;;1.20;;
27684;SDS011;46113;50.130;8.526;2024-01-27T03:31:13;5.18;;;1.17;;
27684;SDS011;46113;50.130;8.526;2024-01-27T03:33:40;5.65;;;0.95;;
27684;SDS011;46113;50.130;8.526;2024-01-27T03:36:10;6.68;;;1.30;;
27684;SDS011;46113;50.130;8.526;2024-01-27T03:38:40;4.22;;;1.83;;
27684;SDS011;46113;50.130;8.526;2024-01-27T03:41:07;4.57;;;1.00;;
27684;SDS011;46113;50.130;8.526;2024-01-27T03:43:34;4.63;;;1.15;;
27684;SDS011;46113;50.130;8.526;2024-01-27T03:46:01;5.80;;;0.98;;
27684;SDS011;46113;50.130;8.526;2024-01-27T03:48:28;6.93;;;1.50;;
27684;SDS011;46113;50.130;8.526;2024-01-27T03:50:55;3.65;;;1.23;;
27684;SDS011;46113;50.130;8.526;2024-01-27T03:53:21;4.45;;;1.02;;
27684;SDS011;46113;50.130;8.526;2024-01-27T03:55:48;4.57;;;1.02;;
27684;SDS011;46113;50.130;8.526;2024-01-27T03:58:15;8.00;;;0.95;;
27684;SDS011;46113;50.130;8.526;2024-01-27T04:00:41;11.68;;;1.35;;
27684;SDS011;46113;50.130;8.526;2024-01-27T04:03:11;5.85;;;1.40;;
27684;SDS011;46113;50.130;8.526;2024-01-27T04:05:38;10.10;;;1.77;;
27684;SDS011;46113;50.130;8.526;2024-01-27T04:08:05;7.72;;;0.95;;
27684;SDS011;46113;50.130;8.526;2024-01-27T04:10:32;2.83;;;1.20;;
27684;SDS011;46113;50.130;8.526;2024-01-27T04:13:00;11.43;;;2.05;;
27684;SDS011;46113;50.130;8.526;2024-01-27T04:15:27;11.70;;;1.42;;
27684;SDS011;46113;50.130;8.526;2024-01-27T04:17:54;3.03;;;0.82;;
27684;SDS011;46113;50.130;8.526;2024-01-27T04:20:21;10.30;;;1.30;;
27684;SDS011;46113;50.130;8.526;2024-01-27T04:22:48;8.15;;;0.88;;
27684;SDS011;46113;50.130;8.526;2024-01-27T04:25:14;10.73;;;1.13;;
27684;SDS011;46113;50.130;8.526;2024-01-27T04:27:41;5.40;;;0.98;;
27684;SDS011;46113;50.130;8.526;2024-01-27T04:30:11;7.32;;;1.05;;
27684;SDS011;46113;50.130;8.526;2024-01-27T04:32:39;2.50;;;1.23;;
27684;SDS011;46113;50.130;8.526;2024-01-27T04:35:09;6.60;;;1.73;;
27684;SDS011;46113;50.130;8.526;2024-01-27T04:37:37;7.90;;;1.55;;
27684;SDS011;46113;50.130;8.526;2024-01-27T04:40:04;4.10;;;0.63;;
27684;SDS011;46113;50.130;8.526;2024-01-27T04:42:34;6.95;;;1.75;;
27684;SDS011;46113;50.130;8.526;2024-01-27T04:45:01;8.73;;;1.40;;
27684;SDS011;46113;50.130;8.526;2024-01-27T04:47:29;3.20;;;0.60;;
27684;SDS011;46113;50.130;8.526;2024-01-27T04:49:55;1.38;;;0.88;;
27684;SDS011;46113;50.130;8.526;2024-01-27T04:52:23;8.30;;;1.20;;
27684;SDS011;46113;50.130;8.526;2024-01-27T04:54:50;5.60;;;1.20;;
27684;SDS011;46113;50.130;8.526;2024-01-27T04:57:17;10.63;;;1.25;;
27684;SDS011;46113;50.130;8.526;2024-01-27T04:59:44;9.10;;;1.92;;
27684;SDS011;46113;50.130;8.526;2024-01-27T05:02:11;3.47;;;0.98;;
27684;SDS011;46113;50.130;8.526;2024-01-27T05:04:38;13.45;;;1.33;;
27684;SDS011;46113;50.130;8.526;2024-01-27T05:07:04;11.98;;;1.15;;
27684;SDS011;46113;50.130;8.526;2024-01-27T05:09:33;4.07;;;1.00;;
27684;SDS011;46113;50.130;8.526;2024-01-27T05:12:00;9.43;;;1.25;;
27684;SDS011;46113;50.130;8.526;2024-01-27T05:14:27;4.13;;;1.42;;
27684;SDS011;46113;50.130;8.526;2024-01-27T05:16:54;9.63;;;1.25;;
27684;SDS011;46113;50.130;8.526;2024-01-27T05:19:20;5.93;;;1.17;;
27684;SDS011;46113;50.130;8.526;2024-01-27T05:21:48;3.83;;;0.65;;
27684;SDS011;46113;50.130;8.526;2024-01-27T05:24:14;3.70;;;1.13;;
27684;SDS011;46113;50.130;8.526;2024-01-27T05:26:41;3.38;;;1.33;;
27684;SDS011;46113;50.130;8.526;2024-01-27T05:29:08;7.55;;;0.93;;
27684;SDS011;46113;50.130;8.526;2024-01-27T05:31:35;5.25;;;0.98;;
27684;SDS011;46113;50.130;8.526;2024-01-27T05:34:01;7.53;;;1.75;;
27684;SDS011;46113;50.130;8.526;2024-01-27T05:36:28;8.20;;;1.15;;
27684;SDS011;46113;50.130;8.526;2024-01-27T05:38:55;5.32;;;1.05;;
27684;SDS011;46113;50.130;8.526;2024-01-27T05:41:25;10.98;;;1.15;;
27684;SDS011;46113;50.130;8.526;2024-01-27T05:43:52;5.85;;;1.45;;
27684;SDS011;46113;50.130;8.526;2024-01-27T05:46:19;5.43;;;1.10;;
27684;SDS011;46113;50.130;8.526;2024-01-27T05:48:46;4.95;;;0.90;;
27684;SDS011;46113;50.130;8.526;2024-01-27T05:51:13;5.60;;;0.82;;
27684;SDS011;46113;50.130;8.526;2024-01-27T05:53:39;4.07;;;0.90;;
27684;SDS011;46113;50.130;8.526;2024-01-27T05:56:06;4.45;;;1.10;;
27684;SDS011;46113;50.130;8.526;2024-01-27T05:58:33;9.00;;;1.30;;
27684;SDS011;46113;50.130;8.526;2024-01-27T06:00:59;5.53;;;1.30;;
27684;SDS011;46113;50.130;8.526;2024-01-27T06:03:26;5.03;;;1.40;;
27684;SDS011;46113;50.130;8.526;2024-01-27T06:05:53;9.65;;;1.88;;
27684;SDS011;46113;50.130;8.526;2024-01-27T06:08:20;7.90;;;1.85;;
27684;SDS011;46113;50.130;8.526;2024-01-27T06:10:47;7.85;;;1.60;;
27684;SDS011;46113;50.130;8.526;2024-01-27T06:13:14;6.18;;;0.98;;
27684;SDS011;46113;50.130;8.526;2024-01-27T06:15:40;5.65;;;1.33;;
27684;SDS011;46113;50.130;8.526;2024-01-27T06:18:07;2.85;;;1.13;;
27684;SDS011;46113;50.130;8.526;2024-01-27T06:20:34;7.55;;;1.33;;
27684;SDS011;46113;50.130;8.526;2024-01-27T06:23:00;13.30;;;1.55;;
27684;SDS011;46113;50.130;8.526;2024-01-27T06:25:27;7.85;;;1.27;;
27684;SDS011;46113;50.130;8.526;2024-01-27T06:27:54;8.35;;;1.30;;
27684;SDS011;46113;50.130;8.526;2024-01-27T06:30:21;11.65;;;1.70;;
27684;SDS011;46113;50.130;8.526;2024-01-27T06:32:48;5.30;;;1.15;;
27684;SDS011;46113;50.130;8.526;2024-01-27T06:35:15;4.93;;;1.42;;
27684;SDS011;46113;50.130;8.526;2024-01-27T06:37:41;7.45;;;1.55;;
27684;SDS011;46113;50.130;8.526;2024-01-27T06:40:08;7.22;;;1.40;;
27684;SDS011;46113;50.130;8.526;2024-01-27T06:42:36;9.35;;;1.63;;
27684;SDS011;46113;50.130;8.526;2024-01-27T06:45:03;11.77;;;1.58;;
27684;SDS011;46113;50.130;8.526;2024-01-27T06:47:30;9.73;;;1.83;;
27684;SDS011;46113;50.130;8.526;2024-01-27T06:49:56;5.25;;;1.48;;
27684;SDS011;46113;50.130;8.526;2024-01-27T06:52:23;8.07;;;1.70;;
27684;SDS011;46113;50.130;8.526;2024-01-27T06:54:50;7.55;;;1.85;;
27684;SDS011;46113;50.130;8.526;2024-01-27T06:57:17;7.00;;;2.33;;
27684;SDS011;46113;50.130;8.526;2024-01-27T06:59:47;9.77;;;4.45;;
27684;SDS011;46113;50.130;8.526;2024-01-27T07:02:23;13.90;;;4.50;;
27684;SDS011;46113;50.130;8.526;2024-01-27T07:04:53;17.35;;;7.10;;
27684;SDS011;46113;50.130;8.526;2024-01-27T07:07:21;14.27;;;5.57;;
27684;SDS011;46113;50.130;8.526;2024-01-27T07:09:52;12.88;;;4.15;;
27684;SDS011;46113;50.130;8.526;2024-01-27T07:12:21;25.90;;;7.82;;
27684;SDS011;46113;50.130;8.526;2024-01-27T07:14:48;13.90;;;5.80;;
27684;SDS011;46113;50.130;8.526;2024-01-27T07:17:15;16.85;;;4.55;;
27684;SDS011;46113;50.130;8.526;2024-01-27T07:19:42;9.90;;;3.40;;
27684;SDS011;46113;50.130;8.526;2024-01-27T07:22:09;6.20;;;2.25;;
27684;SDS011;46113;50.130;8.526;2024-01-27T07:24:36;9.57;;;3.45;;
27684;SDS011;46113;50.130;8.526;2024-01-27T07:27:03;3.83;;;2.08;;
27684;SDS011;46113;50.130;8.526;2024-01-27T07:29:30;11.57;;;2.17;;
27684;SDS011;46113;50.130;8.526;2024-01-27T07:31:57;8.23;;;1.60;;
27684;SDS011;46113;50.130;8.526;2024-01-27T07:34:24;1.38;;;1.27;;
27684;SDS011;46113;50.130;8.526;2024-01-27T07:36:50;10.35;;;1.88;;
27684;SDS011;46113;50.130;8.526;2024-01-27T07:39:22;8.48;;;1.92;;
27684;SDS011;46113;50.130;8.526;2024-01-27T07:41:49;6.25;;;2.17;;
27684;SDS011;46113;50.130;8.526;2024-01-27T07:44:18;8.98;;;1.60;;
27684;SDS011;46113;50.130;8.526;2024-01-27T07:46:45;2.80;;;1.40;;
27684;SDS011;46113;50.130;8.526;2024-01-27T07:49:11;12.98;;;1.70;;
27684;SDS011;46113;50.130;8.526;2024-01-27T07:51:39;11.60;;;1.75;;
27684;SDS011;46113;50.130;8.526;2024-01-27T07:54:06;6.05;;;2.22;;
27684;SDS011;46113;50.130;8.526;2024-01-27T07:56:32;7.93;;;2.10;;
27684;SDS011;46113;50.130;8.526;2024-01-27T07:58:59;4.07;;;2.13;;
27684;SDS011;46113;50.130;8.526;2024-01-27T08:01:26;3.38;;;1.33;;
27684;SDS011;46113;50.130;8.526;2024-01-27T08:03:53;7.82;;;1.73;;
27684;SDS011;46113;50.130;8.526;2024-01-27T08:06:26;9.82;;;1.40;;
27684;SDS011;46113;50.130;8.526;2024-01-27T08:08:54;4.63;;;1.63;;
27684;SDS011;46113;50.130;8.526;2024-01-27T08:11:21;3.92;;;1.52;;
27684;SDS011;46113;50.130;8.526;2024-01-27T08:13:48;4.25;;;1.63;;
27684;SDS011;46113;50.130;8.526;2024-01-27T08:16:15;6.28;;;2.55;;
27684;SDS011;46113;50.130;8.526;2024-01-27T08:18:42;5.72;;;2.22;;
27684;SDS011;46113;50.130;8.526;2024-01-27T08:21:11;9.20;;;2.10;;
27684;SDS011;46113;50.130;8.526;2024-01-27T08:23:40;8.70;;;2.35;;
27684;SDS011;46113;50.130;8.526;2024-01-27T08:26:07;4.40;;;1.90;;
27684;SDS011;46113;50.130;8.526;2024-01-27T08:28:34;6.15;;;1.88;;
27684;SDS011;46113;50.130;8.526;2024-01-27T08:31:01;6.85;;;1.75;;
27684;SDS011;46113;50.130;8.526;2024-01-27T08:33:28;6.40;;;2.88;;
27684;SDS011;46113;50.130;8.526;2024-01-27T08:35:55;4.45;;;1.67;;
27684;SDS011;46113;50.130;8.526;2024-01-27T08:38:22;5.65;;;2.42;;
27684;SDS011;46113;50.130;8.526;2024-01-27T08:40:49;5.93;;;2.42;;
27684;SDS011;46113;50.130;8.526;2024-01-27T08:43:15;5.88;;;2.13;;
27684;SDS011;46113;50.130;8.526;2024-01-27T08:45:42;7.45;;;2.50;;
27684;SDS011;46113;50.130;8.526;2024-01-27T08:48:09;10.15;;;2.05;;
27684;SDS011;46113;50.130;8.526;2024-01-27T08:50:38;5.10;;;2.55;;
27684;SDS011;46113;50.130;8.526;2024-01-27T08:53:05;8.52;;;1.60;;
27684;SDS011;46113;50.130;8.526;2024-01-27T08:55:32;4.75;;;2.25;;
27684;SDS011;46113;50.130;8.526;2024-01-27T08:57:59;4.22;;;1.88;;
27684;SDS011;46113;50.130;8.526;2024-01-27T09:00:25;10.25;;;2.55;;
27684;SDS011;46113;50.130;8.526;2024-01-27T09:02:52;13.20;;;2.75;;
27684;SDS011;46113;50.130;8.526;2024-01-27T09:05:19;12.15;;;3.17;;
27684;SDS011;46113;50.130;8.526;2024-01-27T09:07:46;8.55;;;2.92;;
27684;SDS011;46113;50.130;8.526;2024-01-27T09:10:13;16.60;;;3.47;;
27684;SDS011;46113;50.130;8.526;2024-01-27T09:12:42;8.52;;;2.70;;
27684;SDS011;46113;50.130;8.526;2024-01-27T09:15:09;8.30;;;2.95;;
27684;SDS011;46113;50.130;8.526;2024-01-27T09:17:36;3.45;;;2.65;;
27684;SDS011;46113;50.130;8.526;2024-01-27T09:20:03;18.88;;;4.18;;
27684;SDS011;46113;50.130;8.526;2024-01-27T09:22:30;13.07;;;4.07;;
27684;SDS011;46113;50.130;8.526;2024-01-27T09:24:57;11.65;;;4.15;;
27684;SDS011;46113;50.130;8.526;2024-01-27T09:27:24;15.38;;;5.28;;
27684;SDS011;46113;50.130;8.526;2024-01-27T09:29:51;16.95;;;5.43;;
27684;SDS011;46113;50.130;8.526;2024-01-27T09:32:18;12.27;;;4.45;;
27684;SDS011;46113;50.130;8.526;2024-01-27T09:34:44;25.90;;;7.50;;
27684;SDS011;46113;50.130;8.526;2024-01-27T09:37:11;16.65;;;5.45;;
27684;SDS011;46113;50.130;8.526;2024-01-27T09:39:38;18.67;;;7.00;;
27684;SDS011;46113;50.130;8.526;2024-01-27T09:42:06;16.13;;;7.28;;
27684;SDS011;46113;50.130;8.526;2024-01-27T09:44:34;12.80;;;6.10;;
27684;SDS011;46113;50.130;8.526;2024-01-27T09:47:02;21.40;;;8.27;;
27684;SDS011;46113;50.130;8.526;2024-01-27T09:49:29;25.85;;;7.72;;
27684;SDS011;46113;50.130;8.526;2024-01-27T09:51:58;13.60;;;5.57;;
27684;SDS011;46113;50.130;8.526;2024-01-27T09:54:25;15.70;;;5.10;;
27684;SDS011;46113;50.130;8.526;2024-01-27T09:56:53;13.40;;;5.95;;
27684;SDS011;46113;50.130;8.526;2024-01-27T09:59:22;16.65;;;5.90;;
27684;SDS011;46113;50.130;8.526;2024-01-27T10:01:49;23.00;;;6.18;;
27684;SDS011;46113;50.130;8.526;2024-01-27T10:04:19;17.50;;;6.57;;
27684;SDS011;46113;50.130;8.526;2024-01-27T10:06:47;18.10;;;5.85;;
27684;SDS011;46113;50.130;8.526;2024-01-27T10:09:20;15.35;;;4.80;;
27684;SDS011;46113;50.130;8.526;2024-01-27T10:11:46;15.75;;;5.45;;
27684;SDS011;46113;50.130;8.526;2024-01-27T10:14:14;18.17;;;6.32;;
27684;SDS011;46113;50.130;8.526;2024-01-27T10:16:41;19.88;;;5.10;;
27684;SDS011;46113;50.130;8.526;2024-01-27T10:19:17;11.63;;;4.60;;
27684;SDS011;46113;50.130;8.526;2024-01-27T10:21:45;8.52;;;3.38;;
27684;SDS011;46113;50.130;8.526;2024-01-27T10:24:13;11.13;;;4.00;;
27684;SDS011;46113;50.130;8.526;2024-01-27T10:26:41;10.02;;;3.80;;
27684;SDS011;46113;50.130;8.526;2024-01-27T10:29:08;6.80;;;4.43;;
27684;SDS011;46113;50.130;8.526;2024-01-27T10:31:36;8.80;;;3.20;;
27684;SDS011;46113;50.130;8.526;2024-01-27T10:34:03;6.32;;;2.85;;
27684;SDS011;46113;50.130;8.526;2024-01-27T10:36:40;13.85;;;3.25;;
27684;SDS011;46113;50.130;8.526;2024-01-27T10:39:15;4.95;;;2.03;;
27684;SDS011;46113;50.130;8.526;2024-01-27T10:41:46;13.13;;;2.58;;
27684;SDS011;46113;50.130;8.526;2024-01-27T10:44:14;5.10;;;2.00;;
27684;SDS011;46113;50.130;8.526;2024-01-27T10:46:48;5.30;;;2.00;;
27684;SDS011;46113;50.130;8.526;2024-01-27T10:49:16;8.25;;;2.53;;
27684;SDS011;46113;50.130;8.526;2024-01-27T10:51:55;8.80;;;2.47;;
27684;SDS011;46113;50.130;8.526;2024-01-27T10:54:26;16.00;;;4.15;;
27684;SDS011;46113;50.130;8.526;2024-01-27T10:56:57;17.52;;;4.28;;
27684;SDS011;46113;50.130;8.526;2024-01-27T10:59:28;18.95;;;4.03;;
27684;SDS011;46113;50.130;8.526;2024-01-27T11:01:58;12.77;;;3.80;;
27684;SDS011;46113;50.130;8.526;2024-01-27T11:04:25;28.92;;;4.63;;
27684;SDS011;46113;50.130;8.526;2024-01-27T11:06:55;19.92;;;4.43;;
27684;SDS011;46113;50.130;8.526;2024-01-27T11:09:23;12.13;;;2.67;;
27684;SDS011;46113;50.130;8.526;2024-01-27T11:11:51;20.20;;;2.88;;
27684;SDS011;46113;50.130;8.526;2024-01-27T11:14:18;12.90;;;2.03;;
27684;SDS011;46113;50.130;8.526;2024-01-27T11:16:45;8.77;;;2.35;;
27684;SDS011;46113;50.130;8.526;2024-01-27T11:19:16;11.63;;;1.95;;
27684;SDS011;46113;50.130;8.526;2024-01-27T11:21:43;9.43;;;2.67;;
27684;SDS011;46113;50.130;8.526;2024-01-27T11:24:17;6.18;;;1.83;;
27684;SDS011;46113;50.130;8.526;2024-01-27T11:26:45;5.03;;;1.65;;
27684;SDS011;46113;50.130;8.526;2024-01-27T11:29:12;5.32;;;1.52;;
27684;SDS011;46113;50.130;8.526;2024-01-27T11:31:46;11.07;;;1.33;;
27684;SDS011;46113;50.130;8.526;2024-01-27T11:34:14;5.32;;;1.33;;
27684;SDS011;46113;50.130;8.526;2024-01-27T11:36:45;7.05;;;1.73;;
27684;SDS011;46113;50.130;8.526;2024-01-27T11:41:52;7.32;;;1.23;;
27684;SDS011;46113;50.130;8.526;2024-01-27T11:44:22;8.45;;;1.30;;
27684;SDS011;46113;50.130;8.526;2024-01-27T11:46:49;9.00;;;1.23;;
27684;SDS011;46113;50.130;8.526;2024-01-27T11:49:16;7.28;;;1.25;;
27684;SDS011;46113;50.130;8.526;2024-01-27T11:51:43;12.32;;;2.33;;
27684;SDS011;46113;50.130;8.526;2024-01-27T11:54:11;12.60;;;1.77;;
27684;SDS011;46113;50.130;8.526;2024-01-27T11:56:39;12.77;;;1.67;;
27684;SDS011;46113;50.130;8.526;2024-01-27T11:59:06;8.43;;;1.35;;
27684;SDS011;46113;50.130;8.526;2024-01-27T12:01:32;5.68;;;1.48;;
27684;SDS011;46113;50.130;8.526;2024-01-27T12:04:02;4.05;;;1.25;;
27684;SDS011;46113;50.130;8.526;2024-01-27T12:06:32;7.25;;;1.48;;
27684;SDS011;46113;50.130;8.526;2024-01-27T12:08:59;4.13;;;0.82;;
27684;SDS011;46113;50.130;8.526;2024-01-27T12:11:26;8.15;;;1.40;;
27684;SDS011;46113;50.130;8.526;2024-01-27T12:13:53;4.40;;;1.25;;
27684;SDS011;46113;50.130;8.526;2024-01-27T12:16:21;10.15;;;1.67;;
27684;SDS011;46113;50.130;8.526;2024-01-27T12:18:51;16.63;;;1.55;;
27684;SDS011;46113;50.130;8.526;2024-01-27T12:21:20;6.90;;;1.92;;
27684;SDS011;46113;50.130;8.526;2024-01-27T12:23:50;6.70;;;2.65;;
27684;SDS011;46113;50.130;8.526;2024-01-27T12:26:22;13.02;;;2.33;;
27684;SDS011;46113;50.130;8.526;2024-01-27T12:28:50;8.68;;;2.10;;
27684;SDS011;46113;50.130;8.526;2024-01-27T12:31:17;13.05;;;1.88;;
27684;SDS011;46113;50.130;8.526;2024-01-27T12:33:48;29.42;;;6.90;;
27684;SDS011;46113;50.130;8.526;2024-01-27T12:36:20;9.27;;;2.45;;
27684;SDS011;46113;50.130;8.526;2024-01-27T12:38:48;7.45;;;1.42;;
27684;SDS011;46113;50.130;8.526;2024-01-27T12:41:20;2.35;;;1.25;;
27684;SDS011;46113;50.130;8.526;2024-01-27T12:43:47;8.43;;;1.20;;
27684;SDS011;46113;50.130;8.526;2024-01-27T12:46:13;3.95;;;1.20;;
27684;SDS011;46113;50.130;8.526;2024-01-27T12:48:41;11.23;;;1.65;;
27684;SDS011;46113;50.130;8.526;2024-01-27T12:51:11;10.68;;;1.85;;
27684;SDS011;46113;50.130;8.526;2024-01-27T12:53:39;5.55;;;1.67;;
27684;SDS011;46113;50.130;8.526;2024-01-27T12:56:10;4.35;;;1.02;;
27684;SDS011;46113;50.130;8.526;2024-01-27T12:58:41;10.13;;;1.77;;
27684;SDS011;46113;50.130;8.526;2024-01-27T13:01:08;5.95;;;2.17;;
27684;SDS011;46113;50.130;8.526;2024-01-27T13:03:36;10.23;;;2.25;;
27684;SDS011;46113;50.130;8.526;2024-01-27T13:06:04;5.35;;;1.63;;
27684;SDS011;46113;50.130;8.526;2024-01-27T13:08:31;5.57;;;1.48;;
27684;SDS011;46113;50.130;8.526;2024-01-27T13:10:58;6.25;;;1.63;;
27684;SDS011;46113;50.130;8.526;2024-01-27T13:13:25;9.80;;;3.25;;
27684;SDS011;46113;50.130;8.526;2024-01-27T13:15:52;11.13;;;3.65;;
27684;SDS011;46113;50.130;8.526;2024-01-27T13:18:18;17.45;;;5.50;;
27684;SDS011;46113;50.130;8.526;2024-01-27T13:20:45;16.98;;;6.07;;
27684;SDS011;46113;50.130;8.526;2024-01-27T13:23:12;10.98;;;2.22;;
27684;SDS011;46113;50.130;8.526;2024-01-27T13:25:39;8.63;;;1.50;;
27684;SDS011;46113;50.130;8.526;2024-01-27T13:28:10;6.85;;;1.75;;
27684;SDS011;46113;50.130;8.526;2024-01-27T13:30:38;9.38;;;1.88;;
27684;SDS011;46113;50.130;8.526;2024-01-27T13:33:05;11.43;;;1.88;;
27684;SDS011;46113;50.130;8.526;2024-01-27T13:35:32;9.98;;;1.60;;
27684;SDS011;46113;50.130;8.526;2024-01-27T13:37:59;12.85;;;1.67;;
27684;SDS011;46113;50.130;8.526;2024-01-27T13:40:26;2.00;;;0.95;;
27684;SDS011;46113;50.130;8.526;2024-01-27T13:42:53;7.22;;;1.95;;
27684;SDS011;46113;50.130;8.526;2024-01-27T13:45:20;5.47;;;1.02;;
27684;SDS011;46113;50.130;8.526;2024-01-27T13:47:47;6.28;;;0.85;;
27684;SDS011;46113;50.130;8.526;2024-01-27T13:50:13;5.32;;;1.05;;
27684;SDS011;46113;50.130;8.526;2024-01-27T13:52:41;4.97;;;0.80;;
27684;SDS011;46113;50.130;8.526;2024-01-27T13:55:10;6.57;;;1.00;;
27684;SDS011;46113;50.130;8.526;2024-01-27T13:57:38;9.73;;;1.70;;
27684;SDS011;46113;50.130;8.526;2024-01-27T14:00:06;10.73;;;1.60;;
27684;SDS011;46113;50.130;8.526;2024-01-27T14:02:34;6.45;;;1.80;;
27684;SDS011;46113;50.130;8.526;2024-01-27T14:05:04;9.30;;;1.73;;
27684;SDS011;46113;50.130;8.526;2024-01-27T14:07:31;9.20;;;2.50;;
27684;SDS011;46113;50.130;8.526;2024-01-27T14:09:59;9.57;;;2.60;;
27684;SDS011;46113;50.130;8.526;2024-01-27T14:12:27;6.32;;;1.83;;
27684;SDS011;46113;50.130;8.526;2024-01-27T14:14:55;17.85;;;2.42;;
27684;SDS011;46113;50.130;8.526;2024-01-27T14:17:29;11.15;;;2.17;;
27684;SDS011;46113;50.130;8.526;2024-01-27T14:19:56;5.10;;;1.70;;
27684;SDS011;46113;50.130;8.526;2024-01-27T14:22:23;7.28;;;1.70;;
27684;SDS011;46113;50.130;8.526;2024-01-27T14:24:50;5.15;;;1.05;;
27684;SDS011;46113;50.130;8.526;2024-01-27T14:27:17;6.82;;;1.58;;
27684;SDS011;46113;50.130;8.526;2024-01-27T14:29:44;5.93;;;1.67;;
27684;SDS011;46113;50.130;8.526;2024-01-27T14:32:11;3.92;;;1.10;;
27684;SDS011;46113;50.130;8.526;2024-01-27T14:34:38;4.60;;;1.25;;
27684;SDS011;46113;50.130;8.526;2024-01-27T14:37:05;2.67;;;1.10;;
27684;SDS011;46113;50.130;8.526;2024-01-27T14:39:36;6.40;;;1.70;;
27684;SDS011;46113;50.130;8.526;2024-01-27T14:42:03;11.70;;;1.20;;
27684;SDS011;46113;50.130;8.526;2024-01-27T14:44:34;6.53;;;1.15;;
27684;SDS011;46113;50.130;8.526;2024-01-27T14:47:01;5.70;;;0.77;;